Terminal Aerodrome Forecast
Issued by NWS

Home | Current Version | Previous Version | Text Only | Print | Product List | Glossary On
Versions: 1 2 3 4 5 6 7 8 9 10 11 12 13 14 15 16 17 18 19 20
000
FTPA31 PHFO 252329
TAFMDY
TAF
PMDY 252329Z 2600/2624 20010KT P6SM SCT025 SCT045
     FM261200 28010KT P6SM VCSH SCT025 BKN040
     FM262000 32012KT 6SM -SHRA BKN025 OVC040=

USA.gov is the U.S. government's official web portal to all federal, state and local government web resources and services.